createdAt,value
2022-11-01T22:12:34.974Z,97.60
2022-11-01T22:15:01.613Z,97.20
2022-11-01T22:17:28.234Z,97.80
2022-11-01T22:19:54.835Z,97.40
2022-11-01T22:22:21.463Z,97.30
2022-11-01T22:24:48.044Z,95.80
2022-11-01T22:27:26.652Z,96.40
2022-11-01T22:29:53.245Z,97.70
2022-11-01T22:32:19.847Z,97.80
2022-11-01T22:34:46.476Z,96.10
2022-11-01T22:37:13.389Z,96.80
2022-11-01T22:39:39.997Z,97.10
2022-11-01T22:42:11.954Z,96.10
2022-11-01T22:44:39.345Z,97.20
2022-11-01T22:47:06.489Z,96.90
2022-11-01T22:49:35.146Z,96.60
2022-11-01T22:52:30.643Z,96.30
2022-11-01T22:55:23.692Z,96.00
2022-11-01T22:58:19.669Z,95.50
2022-11-01T23:00:46.300Z,95.70
2022-11-01T23:03:27.331Z,95.20
2022-11-01T23:05:55.737Z,94.80
2022-11-01T23:08:32.668Z,95.40
2022-11-01T23:10:59.394Z,95.00
2022-11-01T23:13:48.075Z,94.80
2022-11-01T23:16:20.478Z,94.80
2022-11-01T23:18:47.139Z,94.80
2022-11-01T23:21:13.732Z,94.90
2022-11-01T23:23:41.829Z,94.20
2022-11-01T23:26:08.732Z,94.50
2022-11-01T23:28:37.029Z,94.50
2022-11-01T23:31:04.601Z,94.80
2022-11-01T23:33:47.076Z,95.00
2022-11-01T23:36:15.023Z,95.00
2022-11-01T23:38:45.773Z,95.00
2022-11-01T23:41:22.070Z,94.90
2022-11-01T23:43:48.820Z,95.40
2022-11-01T23:46:15.473Z,95.40
2022-11-01T23:48:44.391Z,95.10
2022-11-01T23:51:20.159Z,95.20
2022-11-01T23:53:51.440Z,94.70
2022-11-01T23:56:19.178Z,95.40
2022-11-01T23:58:45.820Z,95.60
